createdAt,value
2023-04-05T00:00:37.783Z,50.866734
2023-04-05T00:01:37.724Z,50.866753
2023-04-05T00:02:38.680Z,50.866688
2023-04-05T00:03:37.720Z,50.866718
2023-04-05T00:04:37.751Z,50.866699
2023-04-05T00:05:37.634Z,50.866840
2023-04-05T00:06:37.625Z,50.866768
2023-04-05T00:07:37.639Z,50.866673
2023-04-05T00:08:37.631Z,50.866695
2023-04-05T00:09:37.619Z,50.866745
2023-04-05T00:10:37.602Z,50.866783
2023-04-05T00:11:37.588Z,50.866779
2023-04-05T00:12:37.586Z,50.866776
2023-04-05T00:13:37.560Z,50.866776
2023-04-05T00:14:37.585Z,50.866802
2023-04-05T00:15:37.572Z,50.866756
2023-04-05T00:16:37.610Z,50.866749
2023-04-05T00:17:37.588Z,50.866917
2023-04-05T00:18:37.543Z,50.866730
2023-04-05T00:19:37.517Z,50.866760
2023-04-05T00:20:37.588Z,50.866821
2023-04-05T00:21:37.501Z,50.866756
2023-04-05T00:27:27.771Z,50.866776
2023-04-05T00:28:27.710Z,50.866779
2023-04-05T00:29:27.720Z,50.866737
2023-04-05T00:30:27.717Z,50.866699
2023-04-05T00:31:27.715Z,50.866657
2023-04-05T00:32:27.705Z,50.866650
2023-04-05T00:33:27.681Z,50.866650
2023-04-05T00:34:27.687Z,50.866776
2023-04-05T00:35:27.698Z,50.866734
2023-04-05T00:36:27.665Z,50.866783
2023-04-05T00:37:27.680Z,50.866802
2023-04-05T00:38:27.646Z,50.866852
2023-04-05T00:39:27.627Z,50.866844
2023-04-05T00:40:27.632Z,50.866737
2023-04-05T00:41:27.635Z,50.866760
2023-04-05T00:42:27.622Z,50.866768
2023-04-05T00:43:27.631Z,50.866810
2023-04-05T00:44:27.605Z,50.866890
2023-04-05T00:45:27.595Z,50.866768
2023-04-05T00:46:27.625Z,50.866779
2023-04-05T00:47:27.595Z,50.866833
2023-04-05T00:48:27.611Z,50.866825
2023-04-05T00:49:27.564Z,50.866859
2023-04-05T00:50:27.570Z,50.866886
2023-04-05T00:51:27.574Z,50.866989
2023-04-05T00:52:27.540Z,50.866890
2023-04-05T00:53:27.537Z,50.866810
2023-04-05T00:54:27.519Z,50.866867
2023-04-05T00:55:27.545Z,50.866905
2023-04-05T00:56:27.533Z,50.866810
2023-04-05T00:57:27.510Z,50.866806
2023-04-05T00:58:27.515Z,50.866795
2023-04-05T00:59:27.562Z,50.866837
2023-04-05T01:00:27.494Z,50.866768
2023-04-05T01:01:27.541Z,50.866825
2023-04-05T01:02:27.485Z,50.866829
2023-04-05T01:03:27.471Z,50.866875
2023-04-05T01:04:27.484Z,50.866806
2023-04-05T01:05:27.436Z,50.866890
2023-04-05T01:06:27.472Z,50.866852
2023-04-05T01:07:27.436Z,50.866844
2023-04-05T01:08:27.439Z,50.866909
2023-04-05T01:09:27.421Z,50.866882
2023-04-05T01:10:27.407Z,50.866905
2023-04-05T01:11:27.399Z,50.866905
2023-04-05T01:12:27.428Z,50.866898
2023-04-05T01:13:27.375Z,50.866955
2023-04-05T01:14:27.385Z,50.866932
2023-04-05T01:15:27.440Z,50.866875
2023-04-05T01:16:27.417Z,50.866875
2023-04-05T01:17:27.368Z,50.866959
2023-04-05T01:18:28.358Z,50.866901
2023-04-05T01:19:27.335Z,50.866867
2023-04-05T01:20:27.312Z,50.866863
2023-04-05T01:21:27.318Z,50.866924
2023-04-05T01:22:27.315Z,50.866920
2023-04-05T01:23:27.296Z,50.866917
2023-04-05T01:24:27.291Z,50.866882
2023-04-05T01:25:27.285Z,50.866867
2023-04-05T01:26:27.284Z,50.866905
2023-04-05T01:27:27.295Z,50.866901
2023-04-05T01:28:27.270Z,50.866817
2023-04-05T01:29:27.278Z,50.866844
2023-04-05T01:30:27.889Z,50.866856
2023-04-05T01:31:27.271Z,50.866806
2023-04-05T01:32:27.284Z,50.866825
2023-04-05T01:33:27.225Z,50.866867
2023-04-05T01:34:27.233Z,50.866848
2023-04-05T01:35:27.217Z,50.866829
2023-04-05T01:36:27.203Z,50.866817
2023-04-05T01:37:27.197Z,50.866837
2023-04-05T01:38:27.214Z,50.866825
2023-04-05T01:39:27.182Z,50.866837
2023-04-05T01:40:27.169Z,50.866825
2023-04-05T01:41:27.163Z,50.866852
2023-04-05T01:42:27.150Z,50.866863
2023-04-05T01:43:27.155Z,50.866806
2023-04-05T01:44:27.144Z,50.866852
2023-04-05T01:45:27.135Z,50.866817
2023-04-05T01:46:27.221Z,50.866840
2023-04-05T01:47:27.173Z,50.866840
2023-04-05T01:48:27.116Z,50.866764
2023-04-05T01:49:27.117Z,50.866787
2023-04-05T01:50:27.102Z,50.866798
2023-04-05T01:51:27.104Z,50.866844
2023-04-05T01:52:27.801Z,50.866825
2023-04-05T01:53:27.079Z,50.866802
2023-04-05T01:54:27.146Z,50.866802
2023-04-05T01:55:27.058Z,50.866795
2023-04-05T01:56:27.061Z,50.866753
2023-04-05T01:57:27.073Z,50.866753
2023-04-05T01:58:27.049Z,50.866745
2023-04-05T01:59:27.077Z,50.866764
2023-04-05T02:00:27.030Z,50.866741
2023-04-05T02:01:27.151Z,50.866817
2023-04-05T02:02:27.072Z,50.866856
2023-04-05T02:03:27.083Z,50.866909
2023-04-05T02:04:27.033Z,50.866806
2023-04-05T02:05:26.983Z,50.866776
2023-04-05T02:06:27.007Z,50.866837
2023-04-05T02:07:26.980Z,50.866806
2023-04-05T02:08:26.997Z,50.866703
2023-04-05T02:09:27.961Z,50.866833
2023-04-05T02:10:26.980Z,50.866837
2023-04-05T02:11:26.976Z,50.866779
2023-04-05T02:12:26.930Z,50.866749
2023-04-05T02:13:26.956Z,50.866795
2023-04-05T02:14:26.918Z,50.866852
2023-04-05T02:15:26.921Z,50.866825
2023-04-05T02:16:26.914Z,50.866867
2023-04-05T02:17:26.890Z,50.866825
2023-04-05T02:18:26.893Z,50.866825
2023-04-05T02:19:27.803Z,50.866734
2023-04-05T02:20:26.882Z,50.866814
2023-04-05T02:21:26.862Z,50.866890
2023-04-05T02:22:26.858Z,50.866928
2023-04-05T02:23:26.850Z,50.866859
2023-04-05T02:24:26.868Z,50.866844
2023-04-05T02:25:26.852Z,50.866798
2023-04-05T02:26:26.843Z,50.866848
2023-04-05T02:27:26.863Z,50.866882
2023-04-05T02:28:26.839Z,50.866852
2023-04-05T02:29:26.813Z,50.866890
2023-04-05T02:30:26.805Z,50.866863
2023-04-05T02:31:26.864Z,50.866821
2023-04-05T02:32:26.835Z,50.866966
2023-04-05T02:33:26.783Z,50.867268
2023-04-05T02:34:26.791Z,50.866894
2023-04-05T02:35:26.782Z,50.866875
2023-04-05T02:36:26.755Z,50.866913
2023-04-05T02:37:27.757Z,50.866951
2023-04-05T02:38:26.741Z,50.866936
2023-04-05T02:39:26.740Z,50.867004
2023-04-05T02:40:26.736Z,50.866974
2023-04-05T02:41:26.744Z,50.866920
2023-04-05T02:42:26.731Z,50.866894
2023-04-05T02:43:26.715Z,50.866787
2023-04-05T02:44:26.710Z,50.866787
2023-04-05T02:45:26.697Z,50.866798
2023-04-05T02:46:26.741Z,50.866810
2023-04-05T02:47:26.707Z,50.866772
2023-04-05T02:48:26.673Z,50.866798
2023-04-05T02:49:26.655Z,50.866821
2023-04-05T02:50:26.673Z,50.866776
2023-04-05T02:51:26.645Z,50.866714
2023-04-05T02:52:26.656Z,50.866749
2023-04-05T02:53:27.327Z,50.866734
2023-04-05T02:54:26.634Z,50.866703
2023-04-05T02:55:26.628Z,50.866688
2023-04-05T02:56:27.388Z,50.866753
2023-04-05T02:57:26.627Z,50.866676
2023-04-05T02:58:26.608Z,50.866611
2023-04-05T02:59:26.642Z,50.866695
2023-04-05T03:00:26.590Z,50.866661
2023-04-05T03:01:26.598Z,50.866631
2023-04-05T03:02:26.594Z,50.866802
2023-04-05T03:03:26.615Z,50.866829
2023-04-05T03:04:26.549Z,50.866825
2023-04-05T03:05:26.551Z,50.866852
2023-04-05T03:06:26.548Z,50.866890
2023-04-05T03:07:27.387Z,50.866909
2023-04-05T03:08:26.588Z,50.866959
2023-04-05T03:09:26.521Z,50.867229
2023-04-05T03:10:26.495Z,50.867386
2023-04-05T03:11:26.506Z,50.867744
2023-04-05T03:12:26.517Z,50.868317
2023-04-05T03:13:26.472Z,50.868809
2023-04-05T03:14:26.473Z,50.869301
2023-04-05T03:15:26.454Z,50.869125
2023-04-05T03:16:26.506Z,50.868874
2023-04-05T03:17:26.482Z,50.868675
2023-04-05T03:18:26.445Z,50.868450
2023-04-05T03:19:26.434Z,50.868610
2023-04-05T03:20:26.432Z,50.868404
2023-04-05T03:21:26.436Z,50.867435
2023-04-05T03:22:26.408Z,50.867290
2023-04-05T03:23:26.410Z,50.867306
2023-04-05T03:24:26.393Z,50.867096
2023-04-05T03:25:26.396Z,50.867073
2023-04-05T03:26:26.395Z,50.867111
2023-04-05T03:27:26.377Z,50.867085
2023-04-05T03:28:26.370Z,50.867062
2023-04-05T03:29:26.897Z,50.866974
2023-04-05T03:30:26.361Z,50.866959
2023-04-05T03:31:26.384Z,50.866879
2023-04-05T03:32:26.423Z,50.866943
2023-04-05T03:33:26.345Z,50.866955
2023-04-05T03:34:26.314Z,50.866955
2023-04-05T03:35:26.347Z,50.866924
2023-04-05T03:36:26.330Z,50.867271
2023-04-05T03:37:26.311Z,50.867001
2023-04-05T03:38:26.296Z,50.866962
2023-04-05T03:39:26.274Z,50.867020
2023-04-05T03:40:26.299Z,50.867073
2023-04-05T03:41:26.263Z,50.866798
2023-04-05T03:42:26.261Z,50.866737
2023-04-05T03:43:26.252Z,50.866642
2023-04-05T03:44:26.230Z,50.866650
2023-04-05T03:45:26.234Z,50.866722
2023-04-05T03:46:26.240Z,50.866737
2023-04-05T03:47:26.236Z,50.866623
2023-04-05T03:48:26.229Z,50.866653
2023-04-05T03:49:26.224Z,50.866936
2023-04-05T03:50:26.193Z,50.867359
2023-04-05T03:51:26.885Z,50.867355
2023-04-05T03:52:26.174Z,50.867016
2023-04-05T03:53:26.188Z,50.867023
2023-04-05T03:54:26.155Z,50.866833
2023-04-05T03:55:26.166Z,50.866737
2023-04-05T03:56:26.211Z,50.866684
2023-04-05T03:57:26.153Z,50.866680
2023-04-05T03:58:26.134Z,50.866684
2023-04-05T03:59:26.176Z,50.866734
2023-04-05T04:00:26.121Z,50.866699
2023-04-05T04:01:26.121Z,50.866962
2023-04-05T04:02:26.201Z,50.866821
2023-04-05T04:03:26.161Z,50.866882
2023-04-05T04:04:26.094Z,50.866798
2023-04-05T04:05:26.136Z,50.866798
2023-04-05T04:06:26.139Z,50.866810
2023-04-05T04:07:26.070Z,50.866768
2023-04-05T04:08:26.070Z,50.866844
2023-04-05T04:09:26.058Z,50.866844
2023-04-05T04:10:26.811Z,50.866821
2023-04-05T04:11:26.065Z,50.866875
2023-04-05T04:12:26.038Z,50.866863
2023-04-05T04:13:26.019Z,50.866806
2023-04-05T04:14:26.016Z,50.866764
2023-04-05T04:15:26.003Z,50.866825
2023-04-05T04:16:27.467Z,50.866764
2023-04-05T04:17:27.034Z,50.866817
2023-04-05T04:18:26.176Z,50.866791
2023-04-05T04:19:25.957Z,50.866772
2023-04-05T04:20:25.978Z,50.866764
2023-04-05T04:21:25.949Z,50.866741
2023-04-05T04:22:25.945Z,50.866745
2023-04-05T04:23:25.940Z,50.866734
2023-04-05T04:24:25.938Z,50.866760
2023-04-05T04:25:26.812Z,50.866749
2023-04-05T04:26:25.925Z,50.866848
2023-04-05T04:27:25.911Z,50.866726
2023-04-05T04:28:25.885Z,50.866680
2023-04-05T04:29:25.910Z,50.866787
2023-04-05T04:30:25.877Z,50.866703
2023-04-05T04:31:25.930Z,50.866756
2023-04-05T04:32:25.891Z,50.866791
2023-04-05T04:33:25.862Z,50.866776
2023-04-05T04:34:25.950Z,50.866745
2023-04-05T04:35:25.883Z,50.866707
2023-04-05T04:36:25.852Z,50.866737
2023-04-05T04:37:25.821Z,50.866783
2023-04-05T04:38:25.846Z,50.866814
2023-04-05T04:39:25.813Z,50.866814
2023-04-05T04:40:25.808Z,50.866802
2023-04-05T04:41:25.811Z,50.866859
2023-04-05T04:42:25.817Z,50.866821
2023-04-05T04:43:25.778Z,50.866741
2023-04-05T04:44:25.791Z,50.866772
2023-04-05T04:45:25.785Z,50.866737
2023-04-05T04:46:25.774Z,50.866795
2023-04-05T04:47:25.767Z,50.866734
2023-04-05T04:48:25.750Z,50.866688
2023-04-05T04:49:25.764Z,50.866684
2023-04-05T04:50:26.391Z,50.866734
2023-04-05T04:51:25.725Z,50.866653
2023-04-05T04:52:25.712Z,50.866611
2023-04-05T04:53:25.721Z,50.866707
2023-04-05T04:54:25.719Z,50.866726
2023-04-05T04:55:25.702Z,50.866714
2023-04-05T04:56:25.684Z,50.866665
2023-04-05T04:57:25.681Z,50.866680
2023-04-05T04:58:25.665Z,50.866692
2023-04-05T04:59:25.702Z,50.866833
2023-04-05T05:00:25.672Z,50.866791
2023-04-05T05:01:25.689Z,50.866829
2023-04-05T05:02:25.653Z,50.866817
2023-04-05T05:03:25.631Z,50.866886
2023-04-05T05:04:25.675Z,50.866810
2023-04-05T05:05:25.626Z,50.866856
2023-04-05T05:06:26.338Z,50.866940
2023-04-05T05:07:25.616Z,50.866837
2023-04-05T05:08:25.604Z,50.866867
2023-04-05T05:09:25.592Z,50.866840
2023-04-05T05:10:25.612Z,50.866825
2023-04-05T05:11:25.575Z,50.866791
2023-04-05T05:12:25.555Z,50.866821
2023-04-05T05:13:25.562Z,50.866856
2023-04-05T05:14:25.551Z,50.866890
2023-04-05T05:15:26.550Z,50.866856
2023-04-05T05:16:25.608Z,50.866806
2023-04-05T05:17:27.344Z,50.866791
2023-04-05T05:18:25.529Z,50.866814
2023-04-05T05:19:25.505Z,50.866783
2023-04-05T05:20:25.498Z,50.866772
2023-04-05T05:21:25.481Z,50.866795
2023-04-05T05:22:26.539Z,50.866776
2023-04-05T05:23:25.500Z,50.866787
2023-04-05T05:24:25.505Z,50.866802
2023-04-05T05:25:25.472Z,50.866810
2023-04-05T05:26:25.462Z,50.866760
2023-04-05T05:27:25.453Z,50.866730
2023-04-05T05:28:25.447Z,50.866776
2023-04-05T05:29:25.434Z,50.866783
2023-04-05T05:30:25.456Z,50.866779
2023-04-05T05:31:25.470Z,50.866722
2023-04-05T05:32:25.451Z,50.866772
2023-04-05T05:33:25.430Z,50.866791
2023-04-05T05:34:25.418Z,50.866791
2023-04-05T05:35:25.414Z,50.866783
2023-04-05T05:36:25.383Z,50.866768
2023-04-05T05:37:25.378Z,50.866779
2023-04-05T05:38:25.394Z,50.866791
2023-04-05T05:39:25.383Z,50.866810
2023-04-05T05:40:25.354Z,50.866821
2023-04-05T05:41:25.372Z,50.866798
2023-04-05T05:42:25.327Z,50.866798
2023-04-05T05:43:25.336Z,50.866817
2023-04-05T05:44:25.322Z,50.866783
2023-04-05T05:45:25.326Z,50.866783
2023-04-05T05:46:25.360Z,50.866783
2023-04-05T05:47:25.322Z,50.866749
2023-04-05T05:48:25.290Z,50.866726
2023-04-05T05:49:25.283Z,50.866760
2023-04-05T05:50:25.280Z,50.866810
2023-04-05T05:51:25.258Z,50.866787
2023-04-05T05:52:25.418Z,50.866741
2023-04-05T05:53:25.237Z,50.866737
2023-04-05T05:54:25.254Z,50.866730
2023-04-05T05:55:25.919Z,50.866749
2023-04-05T05:56:25.246Z,50.866760
2023-04-05T05:57:25.216Z,50.866734
2023-04-05T05:58:25.218Z,50.866734
2023-04-05T05:59:25.224Z,50.866741
2023-04-05T06:00:25.176Z,50.866753
2023-04-05T06:01:26.184Z,50.866764
2023-04-05T06:02:25.208Z,50.866741
2023-04-05T06:03:25.287Z,50.866749
2023-04-05T06:04:25.334Z,50.866753
2023-04-05T06:05:25.160Z,50.866753
2023-04-05T06:06:25.830Z,50.866734
2023-04-05T06:07:25.134Z,50.866756
2023-04-05T06:08:25.166Z,50.866737
2023-04-05T06:09:25.132Z,50.866749
2023-04-05T06:10:25.127Z,50.866730
2023-04-05T06:11:25.102Z,50.866722
2023-04-05T06:12:26.037Z,50.866753
2023-04-05T06:13:25.095Z,50.866745
2023-04-05T06:14:25.314Z,50.866753
2023-04-05T06:15:25.076Z,50.866741
2023-04-05T06:16:25.161Z,50.866741
2023-04-05T06:17:25.056Z,50.866745
2023-04-05T06:18:25.067Z,50.866791
2023-04-05T06:19:25.053Z,50.866749
2023-04-05T06:20:25.484Z,50.866737
2023-04-05T06:21:25.048Z,50.866760
2023-04-05T06:22:25.058Z,50.866783
2023-04-05T06:23:25.030Z,50.866722
2023-04-05T06:24:25.034Z,50.866642
2023-04-05T06:25:24.995Z,50.866623
2023-04-05T06:26:25.010Z,50.866714
2023-04-05T06:27:25.002Z,50.866776
2023-04-05T06:28:25.004Z,50.866810
2023-04-05T06:29:24.996Z,50.866760
2023-04-05T06:30:24.964Z,50.866768
2023-04-05T06:31:24.939Z,50.866791
2023-04-05T06:32:24.930Z,50.866745
2023-04-05T06:33:24.928Z,50.866718
2023-04-05T06:34:25.949Z,50.866703
2023-04-05T06:35:24.926Z,50.866730
2023-04-05T06:36:27.313Z,50.866756
2023-04-05T06:37:24.919Z,50.866726
2023-04-05T06:38:25.426Z,50.866745
2023-04-05T06:39:24.903Z,50.866787
2023-04-05T06:40:24.870Z,50.866787
2023-04-05T06:41:24.868Z,50.866791
2023-04-05T06:42:26.436Z,50.866772
2023-04-05T06:43:25.426Z,50.866734
2023-04-05T06:44:25.428Z,50.866692
2023-04-05T06:45:24.859Z,50.866722
2023-04-05T06:46:24.969Z,50.866730
2023-04-05T06:47:24.826Z,50.866787
2023-04-05T06:48:24.839Z,50.866783
2023-04-05T06:49:24.831Z,50.866718
2023-04-05T06:50:24.858Z,50.866669
2023-04-05T06:51:24.787Z,50.866699
2023-04-05T06:52:24.830Z,50.866703
2023-04-05T06:53:24.798Z,50.866707
2023-04-05T06:54:24.765Z,50.866695
2023-04-05T06:55:24.790Z,50.866673
2023-04-05T06:56:25.366Z,50.866707
2023-04-05T06:57:24.741Z,50.866730
2023-04-05T06:58:25.603Z,50.866627
2023-04-05T06:59:25.391Z,50.866623
2023-04-05T07:00:25.354Z,50.866570
2023-04-05T07:01:24.811Z,50.866642
2023-04-05T07:02:24.724Z,50.866703
2023-04-05T07:03:25.849Z,50.866695
2023-04-05T07:04:24.767Z,50.866714
2023-04-05T07:05:25.418Z,50.866718
2023-04-05T07:06:26.423Z,50.866798
2023-04-05T07:07:24.660Z,50.866699
2023-04-05T07:08:24.646Z,50.866657
2023-04-05T07:09:24.647Z,50.866661
2023-04-05T07:10:24.972Z,50.866577
2023-04-05T07:11:24.659Z,50.866501
2023-04-05T07:12:24.606Z,50.866611
2023-04-05T07:13:24.655Z,50.866596
2023-04-05T07:14:24.618Z,50.866566
2023-04-05T07:15:24.610Z,50.866470
2023-04-05T07:16:24.659Z,50.866459
2023-04-05T07:17:24.633Z,50.866642
2023-04-05T07:18:25.581Z,50.866695
2023-04-05T07:19:24.573Z,50.866722
2023-04-05T07:20:24.581Z,50.866730
2023-04-05T07:21:24.583Z,50.866707
2023-04-05T07:22:24.525Z,50.866703
2023-04-05T07:23:24.520Z,50.866692
2023-04-05T07:24:24.526Z,50.866730
2023-04-05T07:25:24.539Z,50.866737
2023-04-05T07:26:24.514Z,50.866795
2023-04-05T07:27:24.491Z,50.866756
2023-04-05T07:28:24.491Z,50.866657
2023-04-05T07:29:24.489Z,50.866764
2023-04-05T07:30:24.490Z,50.866760
2023-04-05T07:31:24.467Z,50.866703
2023-04-05T07:32:24.606Z,50.866722
2023-04-05T07:33:24.450Z,50.866703
2023-04-05T07:34:24.466Z,50.866749
2023-04-05T07:35:24.460Z,50.866753
2023-04-05T07:36:24.435Z,50.866798
2023-04-05T07:37:24.426Z,50.866810
2023-04-05T07:38:24.407Z,50.866787
2023-04-05T07:39:24.406Z,50.866749
2023-04-05T07:40:24.397Z,50.866760
2023-04-05T07:41:24.383Z,50.866772
2023-04-05T07:42:24.382Z,50.866764
2023-04-05T07:43:24.368Z,50.866756
2023-04-05T07:44:24.403Z,50.866756
2023-04-05T07:45:24.350Z,50.866756
2023-04-05T07:46:24.423Z,50.866756
2023-04-05T07:47:24.480Z,50.866776
2023-04-05T07:48:24.391Z,50.866776
2023-04-05T07:49:25.357Z,50.866760
2023-04-05T07:50:24.321Z,50.866764
2023-04-05T07:51:24.310Z,50.866764
2023-04-05T07:52:24.290Z,50.866749
2023-04-05T07:53:24.309Z,50.866707
2023-04-05T07:54:24.280Z,50.866749
2023-04-05T07:55:24.294Z,50.866756
2023-04-05T07:56:24.306Z,50.866714
2023-04-05T07:57:24.323Z,50.866734
2023-04-05T07:58:24.252Z,50.866749
2023-04-05T07:59:24.347Z,50.866711
2023-04-05T08:00:24.256Z,50.866718
2023-04-05T08:01:24.222Z,50.866756
2023-04-05T08:02:24.227Z,50.866871
2023-04-05T08:03:24.301Z,50.866909
2023-04-05T08:04:24.203Z,50.866890
2023-04-05T08:05:24.366Z,50.866901
2023-04-05T08:06:24.194Z,50.866848
2023-04-05T08:07:24.179Z,50.866802
2023-04-05T08:08:24.172Z,50.866837
2023-04-05T08:09:24.170Z,50.866810
2023-04-05T08:10:24.164Z,50.866814
2023-04-05T08:11:24.150Z,50.866798
2023-04-05T08:12:24.149Z,50.866844
2023-04-05T08:13:24.121Z,50.866863
2023-04-05T08:14:24.132Z,50.866856
2023-04-05T08:15:24.117Z,50.866821
2023-04-05T08:16:24.200Z,50.866833
2023-04-05T08:17:24.102Z,50.866753
2023-04-05T08:18:24.108Z,50.866856
2023-04-05T08:19:24.970Z,50.866817
2023-04-05T08:20:24.089Z,50.866756
2023-04-05T08:21:24.080Z,50.866821
2023-04-05T08:22:24.080Z,50.866825
2023-04-05T08:23:24.063Z,50.866863
2023-04-05T08:24:24.083Z,50.866867
2023-04-05T08:25:24.038Z,50.866806
2023-04-05T08:26:24.058Z,50.867027
2023-04-05T08:27:24.017Z,50.866894
2023-04-05T08:28:24.002Z,50.866924
2023-04-05T08:29:24.025Z,50.866943
2023-04-05T08:30:23.991Z,50.866871
2023-04-05T08:31:24.025Z,50.866871
2023-04-05T08:32:23.976Z,50.866936
2023-04-05T08:33:23.960Z,50.866943
2023-04-05T08:34:23.965Z,50.866905
2023-04-05T08:35:23.964Z,50.866886
2023-04-05T08:36:23.966Z,50.866825
2023-04-05T08:37:23.942Z,50.866875
2023-04-05T08:38:23.910Z,50.866886
2023-04-05T08:39:23.926Z,50.866959
2023-04-05T08:40:23.898Z,50.866879
2023-04-05T08:41:23.937Z,50.866825
2023-04-05T08:42:23.889Z,50.866783
2023-04-05T08:43:23.884Z,50.866886
2023-04-05T08:44:23.879Z,50.866810
2023-04-05T08:45:23.878Z,50.866837
2023-04-05T08:46:23.997Z,50.866848
2023-04-05T08:47:23.934Z,50.866856
2023-04-05T08:48:23.843Z,50.866810
2023-04-05T08:49:23.919Z,50.866829
2023-04-05T08:50:23.847Z,50.866795
2023-04-05T08:51:23.848Z,50.866776
2023-04-05T08:52:23.864Z,50.866772
2023-04-05T08:53:23.808Z,50.866756
2023-04-05T08:54:23.845Z,50.866772
2023-04-05T08:55:23.806Z,50.866779
2023-04-05T08:56:23.810Z,50.866760
2023-04-05T08:57:23.798Z,50.866741
2023-04-05T08:58:23.826Z,50.866737
2023-04-05T08:59:23.815Z,50.866787
2023-04-05T09:00:23.773Z,50.866829
2023-04-05T09:01:23.759Z,50.866821
2023-04-05T09:02:23.764Z,50.866810
2023-04-05T09:03:23.847Z,50.866772
2023-04-05T09:04:23.727Z,50.866772
2023-04-05T09:05:23.726Z,50.866756
2023-04-05T09:06:23.723Z,50.866722
2023-04-05T09:07:23.694Z,50.866730
2023-04-05T09:08:23.779Z,50.866772
2023-04-05T09:09:23.676Z,50.866768
2023-04-05T09:10:23.675Z,50.866741
2023-04-05T09:11:23.690Z,50.866764
2023-04-05T09:12:23.662Z,50.866730
2023-04-05T09:13:23.652Z,50.866707
2023-04-05T09:14:23.657Z,50.866699
2023-04-05T09:15:24.515Z,50.866673
2023-04-05T09:16:23.695Z,50.866741
2023-04-05T09:17:23.614Z,50.866760
2023-04-05T09:18:27.051Z,50.866741
2023-04-05T09:19:24.615Z,50.866776
2023-04-05T09:20:23.603Z,50.866837
2023-04-05T09:21:23.596Z,50.866798
2023-04-05T09:22:24.480Z,50.866810
2023-04-05T09:23:23.581Z,50.866917
2023-04-05T09:24:23.571Z,50.867180
2023-04-05T09:25:23.570Z,50.867096
2023-04-05T09:26:23.547Z,50.866989
2023-04-05T09:27:23.535Z,50.866856
2023-04-05T09:28:23.680Z,50.866848
2023-04-05T09:29:23.517Z,50.866817
2023-04-05T09:30:23.559Z,50.866848
2023-04-05T09:31:23.588Z,50.866776
2023-04-05T09:32:23.512Z,50.866756
2023-04-05T09:33:23.492Z,50.866695
2023-04-05T09:34:23.489Z,50.866657
2023-04-05T09:35:23.479Z,50.866695
2023-04-05T09:36:23.482Z,50.866684
2023-04-05T09:37:24.389Z,50.866676
2023-04-05T09:38:23.463Z,50.866680
2023-04-05T09:39:23.992Z,50.866688
2023-04-05T09:40:23.436Z,50.866703
2023-04-05T09:43:31.387Z,50.866718
2023-04-05T09:44:31.375Z,50.866623
2023-04-05T09:45:31.353Z,50.866669
2023-04-05T09:46:31.405Z,50.866699
2023-04-05T09:47:31.544Z,50.866695
2023-04-05T09:48:31.348Z,50.866669
2023-04-05T09:49:31.345Z,50.866699
2023-04-05T09:50:31.306Z,50.866692
2023-04-05T09:51:31.313Z,50.866684
2023-04-05T09:52:31.309Z,50.866722
2023-04-05T09:53:31.305Z,50.866737
2023-04-05T09:54:31.314Z,50.866638
2023-04-05T09:55:31.284Z,50.866676
2023-04-05T09:56:31.263Z,50.866653
2023-04-05T09:57:31.243Z,50.866726
2023-04-05T09:58:31.239Z,50.866695
2023-04-05T09:59:31.355Z,50.866661
2023-04-05T10:00:32.229Z,50.866650
2023-04-05T10:01:32.171Z,50.866638
2023-04-05T10:02:31.253Z,50.866711
2023-04-05T10:03:31.243Z,50.866646
2023-04-05T10:04:32.193Z,50.866669
2023-04-05T10:05:31.183Z,50.866669
2023-04-05T10:06:31.189Z,50.866634
2023-04-05T10:07:31.167Z,50.866673
2023-04-05T10:08:32.821Z,50.866611
2023-04-05T10:09:31.299Z,50.866619
2023-04-05T10:10:31.166Z,50.866657
2023-04-05T10:11:31.142Z,50.866631
2023-04-05T10:12:31.124Z,50.866596
2023-04-05T10:13:31.134Z,50.866657
2023-04-05T10:14:31.230Z,50.866695
2023-04-05T10:15:31.090Z,50.866665
2023-04-05T10:16:31.128Z,50.866589
2023-04-05T10:17:31.108Z,50.866566
2023-04-05T10:18:31.077Z,50.866627
2023-04-05T10:19:31.082Z,50.866634
2023-04-05T10:20:31.053Z,50.866669
2023-04-05T10:21:31.063Z,50.866653
2023-04-05T10:22:31.061Z,50.866661
2023-04-05T10:23:31.051Z,50.866684
2023-04-05T10:24:31.023Z,50.866695
2023-04-05T10:25:31.038Z,50.866692
2023-04-05T10:26:31.011Z,50.866734
2023-04-05T10:27:31.008Z,50.866692
2023-04-05T10:28:31.476Z,50.866581
2023-04-05T10:29:31.055Z,50.866592
2023-04-05T10:30:31.005Z,50.866577
2023-04-05T10:31:37.787Z,50.866615
2023-04-05T10:32:33.068Z,50.866539
2023-04-05T10:33:30.951Z,50.866302
2023-04-05T10:34:32.160Z,50.866196
2023-04-05T10:35:30.933Z,50.866280
2023-04-05T10:36:30.951Z,50.866329
2023-04-05T10:37:30.954Z,50.866333
2023-04-05T10:38:30.905Z,50.866428
2023-04-05T10:39:30.904Z,50.866478
2023-04-05T10:40:30.916Z,50.866573
2023-04-05T10:41:30.924Z,50.866600
2023-04-05T10:42:30.878Z,50.866646
2023-04-05T10:43:31.658Z,50.866722
2023-04-05T10:44:30.868Z,50.866695
2023-04-05T10:45:31.710Z,50.866703
2023-04-05T10:46:30.895Z,50.866737
2023-04-05T10:47:31.722Z,50.866703
2023-04-05T10:48:30.823Z,50.866745
2023-04-05T10:49:30.876Z,50.866699
2023-04-05T10:50:30.805Z,50.866734
2023-04-05T10:51:30.827Z,50.866749
2023-04-05T10:52:30.876Z,50.866745
2023-04-05T10:53:30.823Z,50.866722
2023-04-05T10:54:30.804Z,50.866699
2023-04-05T10:55:30.842Z,50.866695
2023-04-05T10:56:30.775Z,50.866699
2023-04-05T10:57:30.844Z,50.866772
2023-04-05T10:58:31.278Z,50.866779
2023-04-05T10:59:30.770Z,50.866810
2023-04-05T11:00:30.768Z,50.866810
2023-04-05T11:01:31.726Z,50.866779
2023-04-05T11:02:30.760Z,50.866745
2023-04-05T11:03:30.875Z,50.866692
2023-04-05T11:04:30.763Z,50.866680
2023-04-05T11:05:30.768Z,50.866734
2023-04-05T11:06:30.669Z,50.866726
2023-04-05T11:07:30.679Z,50.866718
2023-04-05T11:08:30.657Z,50.866695
2023-04-05T11:09:30.657Z,50.866745
2023-04-05T11:10:30.665Z,50.866711
2023-04-05T11:11:30.644Z,50.866711
2023-04-05T11:12:30.632Z,50.866779
2023-04-05T11:13:30.642Z,50.866768
2023-04-05T11:14:30.617Z,50.866814
2023-04-05T11:15:30.732Z,50.866791
2023-04-05T11:16:30.636Z,50.866760
2023-04-05T11:17:30.602Z,50.866730
2023-04-05T11:18:30.597Z,50.866730
2023-04-05T11:19:30.582Z,50.866749
2023-04-05T11:20:30.579Z,50.866810
2023-04-05T11:21:30.568Z,50.866798
2023-04-05T11:22:30.564Z,50.866814
2023-04-05T11:23:30.564Z,50.866806
2023-04-05T11:24:30.762Z,50.866802
2023-04-05T11:25:30.535Z,50.866741
2023-04-05T11:26:30.515Z,50.866695
2023-04-05T11:27:30.522Z,50.866680
2023-04-05T11:28:30.547Z,50.866703
2023-04-05T11:29:30.496Z,50.866699
2023-04-05T11:30:30.490Z,50.866745
2023-04-05T11:31:30.529Z,50.866707